Time;durP1;ratioP1;P1;durP2;ratioP2;P2;SDS_P1;SDS_P2;PMS_P1;PMS_P2;Temp;Humidity;BMP_temperature;BMP_pressure;BME280_temperature;BME280_humidity;BME280_pressure;Samples;Min_cycle;Max_cycle;Signal;HPM_P1;HPM_P2
2024/03/22 00:00:11;;;;;;;7.13;6.10;;;;;;;;;;4920554;29;20351;-90
2024/03/22 00:02:37;;;;;;;11.47;5.83;;;;;;;;;;4920545;29;20238;-92
2024/03/22 00:05:04;;;;;;;15.07;7.93;;;;;;;;;;4905123;29;20237;-89
2024/03/22 00:07:42;;;;;;;12.67;9.33;;;;;;;;;;4920213;29;20296;-91
2024/03/22 00:10:08;;;;;;;6.40;4.70;;;;;;;;;;4907414;29;20213;-90
2024/03/22 00:12:34;;;;;;;12.87;7.77;;;;;;;;;;4895835;29;20277;-91
2024/03/22 00:15:01;;;;;;;10.80;5.40;;;;;;;;;;4920086;29;20253;-91
2024/03/22 00:17:30;;;;;;;13.43;6.83;;;;;;;;;;4913505;29;20348;-93
2024/03/22 00:19:57;;;;;;;14.20;8.90;;;;;;;;;;4911786;29;20241;-93
2024/03/22 00:22:23;;;;;;;11.43;5.27;;;;;;;;;;4904573;29;20225;-90
2024/03/22 00:24:49;;;;;;;9.67;6.43;;;;;;;;;;4920861;29;20210;-90
2024/03/22 00:27:20;;;;;;;9.00;6.20;;;;;;;;;;4920189;29;20325;-91
2024/03/22 00:29:46;;;;;;;16.87;5.73;;;;;;;;;;4919974;29;20238;-90
2024/03/22 00:32:15;;;;;;;14.17;8.13;;;;;;;;;;4920566;29;20309;-90
2024/03/22 00:34:51;;;;;;;10.60;6.63;;;;;;;;;;4920618;28;20234;-90
2024/03/22 00:37:19;;;;;;;16.73;8.83;;;;;;;;;;4920751;29;20715;-92
2024/03/22 00:39:48;;;;;;;17.57;8.63;;;;;;;;;;4920219;29;20669;-93
2024/03/22 00:42:14;;;;;;;13.87;7.17;;;;;;;;;;4920083;29;20321;-91
2024/03/22 00:44:45;;;;;;;8.97;6.90;;;;;;;;;;4919423;29;20242;-89
2024/03/22 00:47:13;;;;;;;14.27;9.17;;;;;;;;;;4919926;29;20240;-91
2024/03/22 00:49:42;;;;;;;16.17;7.20;;;;;;;;;;4919525;29;20301;-92
2024/03/22 00:52:08;;;;;;;13.07;6.37;;;;;;;;;;4920224;29;20297;-90
2024/03/22 00:54:34;;;;;;;15.20;6.73;;;;;;;;;;4919541;29;20662;-91
2024/03/22 00:57:01;;;;;;;11.57;6.17;;;;;;;;;;4911947;29;20241;-93
2024/03/22 00:59:29;;;;;;;13.47;5.73;;;;;;;;;;4890632;29;20282;-89
2024/03/22 01:02:10;;;;;;;15.97;6.90;;;;;;;;;;4913514;29;20240;-90
2024/03/22 01:04:39;;;;;;;12.47;6.33;;;;;;;;;;4903054;29;20337;-91
2024/03/22 01:07:05;;;;;;;13.87;6.23;;;;;;;;;;4903465;29;20216;-90
2024/03/22 01:09:32;;;;;;;7.43;6.13;;;;;;;;;;4902336;29;20237;-90
2024/03/22 01:11:58;;;;;;;19.33;8.97;;;;;;;;;;4901616;29;20261;-92
2024/03/22 01:14:26;;;;;;;9.60;5.93;;;;;;;;;;4902295;29;20234;-89
2024/03/22 01:16:53;;;;;;;5.80;3.77;;;;;;;;;;4902375;29;20241;-90
2024/03/22 01:19:20;;;;;;;13.83;6.50;;;;;;;;;;4903167;29;20300;-91
2024/03/22 01:21:46;;;;;;;17.97;8.23;;;;;;;;;;4902469;29;20676;-90
2024/03/22 01:24:15;;;;;;;18.00;6.10;;;;;;;;;;4918220;29;20234;-90
2024/03/22 01:26:42;;;;;;;18.67;7.77;;;;;;;;;;4902383;29;20240;-90
2024/03/22 01:29:09;;;;;;;7.53;6.83;;;;;;;;;;4918475;29;20276;-91
2024/03/22 01:31:38;;;;;;;13.43;6.80;;;;;;;;;;4919387;29;20313;-90
2024/03/22 01:34:05;;;;;;;14.87;7.33;;;;;;;;;;4920063;29;20253;-90
2024/03/22 01:36:31;;;;;;;14.17;7.30;;;;;;;;;;4919106;29;20324;-92
2024/03/22 01:38:57;;;;;;;11.57;5.60;;;;;;;;;;4918477;29;20248;-90
2024/03/22 01:41:26;;;;;;;14.47;5.03;;;;;;;;;;4910119;29;20238;-90
2024/03/22 01:43:55;;;;;;;13.13;6.20;;;;;;;;;;4911208;29;20686;-91
2024/03/22 01:46:23;;;;;;;8.07;4.17;;;;;;;;;;4910979;29;20673;-90
2024/03/22 01:48:53;;;;;;;14.23;7.90;;;;;;;;;;4920328;29;20205;-90
2024/03/22 01:51:21;;;;;;;23.67;8.10;;;;;;;;;;4909891;29;20685;-90
2024/03/22 01:53:52;;;;;;;8.13;4.47;;;;;;;;;;4911706;29;20776;-90
2024/03/22 01:56:18;;;;;;;7.97;5.87;;;;;;;;;;4918098;29;20320;-90
2024/03/22 01:58:44;;;;;;;7.70;5.13;;;;;;;;;;4903145;29;20298;-93
2024/03/22 02:01:13;;;;;;;8.33;5.60;;;;;;;;;;4919561;29;20201;-91
2024/03/22 02:03:42;;;;;;;16.00;6.37;;;;;;;;;;4903001;29;20236;-90
2024/03/22 02:06:10;;;;;;;10.73;5.23;;;;;;;;;;4918463;29;20294;-90
2024/03/22 02:08:40;;;;;;;13.20;5.70;;;;;;;;;;4902722;29;20670;-91
2024/03/22 02:11:09;;;;;;;8.60;5.13;;;;;;;;;;4933080;29;20252;-92
2024/03/22 02:13:38;;;;;;;11.07;3.97;;;;;;;;;;4917896;28;20233;-90
2024/03/22 02:16:04;;;;;;;7.80;5.63;;;;;;;;;;4918615;29;20241;-90
2024/03/22 02:18:31;;;;;;;9.80;6.10;;;;;;;;;;4917698;29;20237;-93
2024/03/22 02:20:57;;;;;;;8.50;3.60;;;;;;;;;;4902785;29;20233;-89
2024/03/22 02:23:36;;;;;;;4.73;4.27;;;;;;;;;;4918005;29;20234;-90
2024/03/22 02:26:02;;;;;;;9.60;4.80;;;;;;;;;;4918114;29;20225;-88
2024/03/22 02:28:29;;;;;;;15.00;6.67;;;;;;;;;;4919045;29;20218;-89
2024/03/22 02:30:55;;;;;;;9.53;5.60;;;;;;;;;;4918724;29;20204;-89
2024/03/22 02:33:21;;;;;;;10.83;7.70;;;;;;;;;;4902320;29;20241;-90
2024/03/22 02:35:48;;;;;;;9.07;6.93;;;;;;;;;;4902945;29;20293;-92
2024/03/22 02:38:14;;;;;;;12.00;6.70;;;;;;;;;;4918586;29;20238;-90
2024/03/22 02:40:42;;;;;;;15.47;6.60;;;;;;;;;;4932496;29;20245;-93
2024/03/22 02:43:08;;;;;;;16.77;7.97;;;;;;;;;;4919522;29;20225;-92
2024/03/22 02:45:35;;;;;;;9.07;7.33;;;;;;;;;;4918556;29;20238;-89
2024/03/22 02:48:01;;;;;;;9.70;5.27;;;;;;;;;;4910266;29;20686;-90
2024/03/22 02:50:33;;;;;;;6.93;5.83;;;;;;;;;;4893203;29;20249;-90
2024/03/22 02:53:01;;;;;;;14.77;6.77;;;;;;;;;;4912965;29;20315;-91
2024/03/22 02:55:30;;;;;;;8.93;4.77;;;;;;;;;;4921256;29;20225;-91
2024/03/22 02:57:59;;;;;;;6.17;4.43;;;;;;;;;;4922779;29;20209;-92
2024/03/22 03:00:26;;;;;;;14.73;6.27;;;;;;;;;;4920721;29;20237;-90
2024/03/22 03:02:52;;;;;;;15.50;6.33;;;;;;;;;;4913371;29;20242;-89
2024/03/22 03:05:18;;;;;;;13.87;6.30;;;;;;;;;;4906080;29;20234;-90
2024/03/22 03:07:46;;;;;;;17.13;7.07;;;;;;;;;;4921614;29;20236;-91
2024/03/22 03:10:15;;;;;;;16.43;6.67;;;;;;;;;;4922241;29;20212;-89
2024/03/22 03:12:43;;;;;;;10.67;7.03;;;;;;;;;;4921210;29;20233;-90
2024/03/22 03:15:12;;;;;;;12.87;5.97;;;;;;;;;;4920632;29;20245;-90
2024/03/22 03:17:38;;;;;;;16.80;6.73;;;;;;;;;;4905452;29;20257;-89
2024/03/22 03:20:13;;;;;;;13.23;6.23;;;;;;;;;;4921045;29;20247;-91
2024/03/22 03:22:39;;;;;;;15.20;4.57;;;;;;;;;;4921825;29;20210;-89
2024/03/22 03:25:05;;;;;;;7.47;4.80;;;;;;;;;;4922310;29;20210;-92
2024/03/22 03:27:34;;;;;;;11.37;8.47;;;;;;;;;;4912528;29;20324;-89
2024/03/22 03:30:00;;;;;;;7.43;5.13;;;;;;;;;;4921234;29;20241;-90
2024/03/22 03:32:27;;;;;;;16.00;7.43;;;;;;;;;;4912679;29;20320;-91
2024/03/22 03:34:53;;;;;;;14.57;4.80;;;;;;;;;;4921029;29;20316;-93
2024/03/22 03:37:27;;;;;;;9.00;4.77;;;;;;;;;;4921791;29;20532;-89
2024/03/22 03:39:53;;;;;;;14.80;7.40;;;;;;;;;;4921187;29;20218;-93
2024/03/22 03:42:20;;;;;;;8.17;5.90;;;;;;;;;;4912586;29;20241;-91
2024/03/22 03:44:49;;;;;;;10.13;5.80;;;;;;;;;;4910602;29;20229;-92
2024/03/22 03:47:17;;;;;;;15.67;7.83;;;;;;;;;;4920410;29;20332;-90
2024/03/22 03:49:48;;;;;;;9.30;5.60;;;;;;;;;;4920275;29;20244;-89
2024/03/22 03:52:14;;;;;;;7.37;4.20;;;;;;;;;;4921072;29;20745;-90
2024/03/22 03:54:41;;;;;;;18.97;7.27;;;;;;;;;;4920803;29;20234;-92
2024/03/22 03:57:07;;;;;;;6.07;3.67;;;;;;;;;;4920123;29;20297;-89
2024/03/22 03:59:33;;;;;;;12.87;6.00;;;;;;;;;;4920289;29;20230;-90
2024/03/22 04:02:04;;;;;;;5.73;3.90;;;;;;;;;;4920249;29;20234;-93
2024/03/22 04:04:30;;;;;;;9.43;4.67;;;;;;;;;;4903793;29;20218;-91
2024/03/22 04:06:58;;;;;;;5.30;4.23;;;;;;;;;;4921162;29;20202;-90
2024/03/22 04:09:25;;;;;;;15.57;4.10;;;;;;;;;;4919950;29;20257;-89
2024/03/22 04:11:51;;;;;;;10.10;4.17;;;;;;;;;;4912815;29;20284;-91
2024/03/22 04:14:19;;;;;;;6.83;3.60;;;;;;;;;;4920542;29;20316;-92
2024/03/22 04:16:46;;;;;;;5.67;3.77;;;;;;;;;;4919853;29;20238;-91
2024/03/22 04:19:12;;;;;;;5.77;4.37;;;;;;;;;;4920843;29;20213;-90
2024/03/22 04:21:41;;;;;;;6.93;3.23;;;;;;;;;;4884421;29;20653;-93
2024/03/22 04:24:12;;;;;;;12.43;3.93;;;;;;;;;;4869097;29;20262;-92
2024/03/22 04:26:38;;;;;;;6.10;4.47;;;;;;;;;;4884123;29;20245;-92
2024/03/22 04:29:07;;;;;;;9.30;4.30;;;;;;;;;;4884564;29;20239;-89
2024/03/22 04:31:35;;;;;;;11.73;4.93;;;;;;;;;;4888762;29;20210;-89
2024/03/22 04:34:02;;;;;;;9.97;3.60;;;;;;;;;;4871897;29;20207;-88
2024/03/22 04:36:30;;;;;;;9.07;3.40;;;;;;;;;;4884286;29;20247;-91
2024/03/22 04:38:56;;;;;;;7.20;4.83;;;;;;;;;;4884382;29;20242;-93
2024/03/22 04:41:22;;;;;;;3.77;2.30;;;;;;;;;;4876933;29;20334;-88
2024/03/22 04:43:49;;;;;;;5.90;3.60;;;;;;;;;;4900357;29;20239;-92
2024/03/22 04:46:20;;;;;;;6.67;4.50;;;;;;;;;;4885074;29;20206;-91
2024/03/22 04:48:51;;;;;;;3.73;3.17;;;;;;;;;;4861142;29;20257;-91
2024/03/22 04:51:17;;;;;;;6.17;4.77;;;;;;;;;;4884172;29;20245;-92
2024/03/22 04:53:45;;;;;;;8.57;4.30;;;;;;;;;;4917211;29;20312;-89
2024/03/22 04:56:19;;;;;;;4.63;3.67;;;;;;;;;;4904315;29;20240;-91
2024/03/22 04:58:48;;;;;;;2.77;2.60;;;;;;;;;;4920818;29;20241;-91
2024/03/22 05:01:25;;;;;;;4.37;3.23;;;;;;;;;;4920505;29;20221;-92
2024/03/22 05:03:51;;;;;;;11.03;3.20;;;;;;;;;;4919977;29;20646;-90
2024/03/22 05:06:18;;;;;;;10.33;3.47;;;;;;;;;;4913093;29;20243;-91
2024/03/22 05:08:44;;;;;;;6.67;5.20;;;;;;;;;;4919698;29;20325;-91
2024/03/22 05:11:10;;;;;;;7.23;2.93;;;;;;;;;;4918709;29;20245;-88
2024/03/22 05:13:37;;;;;;;4.83;3.03;;;;;;;;;;4919254;29;20304;-87
2024/03/22 05:16:03;;;;;;;4.07;2.90;;;;;;;;;;4918933;29;20650;-90
2024/03/22 05:18:29;;;;;;;10.70;2.80;;;;;;;;;;4902430;29;20257;-88
2024/03/22 05:20:55;;;;;;;4.00;3.57;;;;;;;;;;4919262;29;20241;-89
2024/03/22 05:23:21;;;;;;;6.47;3.57;;;;;;;;;;4919205;29;20244;-88
2024/03/22 05:25:50;;;;;;;6.73;1.83;;;;;;;;;;4918501;29;20238;-89
2024/03/22 05:28:21;;;;;;;5.27;2.30;;;;;;;;;;4920763;29;20202;-90
2024/03/22 05:30:48;;;;;;;11.93;3.63;;;;;;;;;;4919272;29;20321;-90
2024/03/22 05:33:14;;;;;;;5.50;3.40;;;;;;;;;;4918905;29;20249;-91
2024/03/22 05:35:41;;;;;;;6.87;2.67;;;;;;;;;;4919252;29;20737;-91
2024/03/22 05:38:07;;;;;;;8.80;4.83;;;;;;;;;;4918710;29;20234;-90
2024/03/22 05:40:38;;;;;;;6.27;2.73;;;;;;;;;;4910148;29;20212;-90
2024/03/22 05:43:04;;;;;;;5.83;2.77;;;;;;;;;;4920038;29;20301;-89
2024/03/22 05:45:33;;;;;;;4.33;3.03;;;;;;;;;;4918601;29;20261;-89
2024/03/22 05:47:59;;;;;;;4.27;3.10;;;;;;;;;;4919055;29;20273;-90
2024/03/22 05:50:25;;;;;;;7.07;5.50;;;;;;;;;;4934127;29;20288;-89
2024/03/22 05:52:51;;;;;;;3.53;2.23;;;;;;;;;;4918455;29;20240;-91
2024/03/22 05:55:17;;;;;;;2.37;2.13;;;;;;;;;;4919435;29;20232;-93
2024/03/22 05:57:44;;;;;;;4.77;2.23;;;;;;;;;;4918321;29;20365;-90
2024/03/22 06:00:11;;;;;;;9.43;3.33;;;;;;;;;;4918133;29;20273;-90
2024/03/22 06:02:37;;;;;;;10.27;2.23;;;;;;;;;;4918747;29;20249;-95
2024/03/22 06:05:04;;;;;;;3.13;2.30;;;;;;;;;;4918793;29;20244;-91
2024/03/22 06:07:35;;;;;;;2.03;1.93;;;;;;;;;;4919321;29;20210;-92
2024/03/22 06:10:02;;;;;;;2.97;2.77;;;;;;;;;;4918768;29;20206;-89
2024/03/22 06:12:28;;;;;;;4.07;2.53;;;;;;;;;;4918719;29;20253;-92
2024/03/22 06:14:54;;;;;;;3.40;2.07;;;;;;;;;;4918588;29;20237;-92
2024/03/22 06:17:20;;;;;;;5.00;2.07;;;;;;;;;;4903172;29;20242;-92
2024/03/22 06:19:46;;;;;;;4.77;2.10;;;;;;;;;;4918984;29;20708;-92
2024/03/22 06:22:12;;;;;;;4.40;2.43;;;;;;;;;;4919020;29;20648;-91
2024/03/22 06:24:38;;;;;;;14.47;2.00;;;;;;;;;;4917166;29;20233;-93
2024/03/22 06:27:07;;;;;;;3.23;2.80;;;;;;;;;;4904809;29;20233;-93
2024/03/22 06:29:33;;;;;;;12.57;1.87;;;;;;;;;;4921938;29;20238;-91
2024/03/22 06:31:59;;;;;;;5.27;3.33;;;;;;;;;;4922462;29;20768;-90
2024/03/22 06:34:25;;;;;;;2.57;2.10;;;;;;;;;;4922507;29;20209;-92
2024/03/22 06:36:51;;;;;;;7.60;3.00;;;;;;;;;;4922548;29;20233;-94
2024/03/22 06:39:17;;;;;;;3.23;2.93;;;;;;;;;;4906238;29;20276;-90
2024/03/22 06:41:46;;;;;;;1.77;1.67;;;;;;;;;;4921672;29;20238;-90
2024/03/22 06:44:15;;;;;;;3.50;1.50;;;;;;;;;;4922742;29;20257;-91
2024/03/22 06:46:41;;;;;;;4.50;3.03;;;;;;;;;;4898957;29;20232;-92
2024/03/22 06:49:07;;;;;;;5.63;2.67;;;;;;;;;;4922503;29;20221;-91
2024/03/22 06:51:37;;;;;;;2.40;2.10;;;;;;;;;;4906278;29;20237;-92
2024/03/22 06:54:03;;;;;;;3.00;2.47;;;;;;;;;;4921672;29;20277;-93
2024/03/22 06:56:31;;;;;;;4.77;3.97;;;;;;;;;;4906335;29;20237;-95
2024/03/22 06:58:58;;;;;;;11.23;2.53;;;;;;;;;;4921907;29;20237;-90
2024/03/22 07:01:24;;;;;;;1.60;1.50;;;;;;;;;;4921585;29;20206;-91
2024/03/22 07:03:52;;;;;;;3.50;2.87;;;;;;;;;;4922508;29;20245;-90
2024/03/22 07:06:19;;;;;;;3.43;2.97;;;;;;;;;;4921969;29;20778;-93
2024/03/22 07:08:45;;;;;;;3.53;2.47;;;;;;;;;;4922162;29;20250;-91
2024/03/22 07:11:13;;;;;;;3.43;2.60;;;;;;;;;;4921769;29;20234;-91
2024/03/22 07:13:39;;;;;;;7.07;3.37;;;;;;;;;;4922046;29;20237;-92
2024/03/22 07:16:06;;;;;;;3.10;2.57;;;;;;;;;;4923280;29;20292;-92
2024/03/22 07:18:32;;;;;;;5.33;3.10;;;;;;;;;;4921473;29;20713;-93
2024/03/22 07:21:03;;;;;;;2.43;1.43;;;;;;;;;;4922253;29;20234;-92
2024/03/22 07:23:29;;;;;;;2.47;2.23;;;;;;;;;;4921842;29;20238;-93
2024/03/22 07:25:58;;;;;;;5.47;3.00;;;;;;;;;;4922929;29;20218;-92
2024/03/22 07:28:28;;;;;;;4.70;2.63;;;;;;;;;;4921970;28;20670;-92
2024/03/22 07:31:28;;;;;;;9.03;1.73;;;;;;;;;;4922912;29;20634;-92
2024/03/22 07:33:55;;;;;;;4.17;2.97;;;;;;;;;;4910182;29;20678;-92
2024/03/22 07:36:26;;;;;;;4.23;2.97;;;;;;;;;;4913013;29;20245;-93
2024/03/22 07:38:55;;;;;;;3.17;2.70;;;;;;;;;;4905226;29;20242;-92
2024/03/22 07:41:27;;;;;;;1.80;1.70;;;;;;;;;;4913657;29;20233;-93
2024/03/22 07:44:01;;;;;;;3.97;2.57;;;;;;;;;;4906793;29;20238;-96
2024/03/22 07:46:28;;;;;;;1.27;1.17;;;;;;;;;;4924047;29;20221;-92
2024/03/22 07:48:54;;;;;;;4.47;2.47;;;;;;;;;;4922924;29;20210;-92
2024/03/22 07:51:26;;;;;;;2.57;1.37;;;;;;;;;;4915697;29;20269;-92
2024/03/22 07:54:03;;;;;;;4.90;1.07;;;;;;;;;;4916385;29;20264;-92
2024/03/22 07:56:30;;;;;;;1.73;1.23;;;;;;;;;;4921832;29;20257;-92
2024/03/22 07:58:56;;;;;;;4.70;4.03;;;;;;;;;;4921625;29;20287;-93
2024/03/22 08:01:23;;;;;;;1.63;1.10;;;;;;;;;;4921345;29;20209;-93
2024/03/22 08:03:49;;;;;;;1.20;1.13;;;;;;;;;;4921780;29;20355;-93
2024/03/22 08:06:15;;;;;;;0.60;0.60;;;;;;;;;;4912970;29;20242;-93
2024/03/22 08:08:44;;;;;;;1.17;0.97;;;;;;;;;;4920122;29;20238;-91
2024/03/22 08:11:10;;;;;;;0.83;0.83;;;;;;;;;;4921164;29;20245;-91
2024/03/22 08:13:39;;;;;;;3.13;2.53;;;;;;;;;;4917005;29;20227;-90
2024/03/22 08:16:05;;;;;;;11.17;2.77;;;;;;;;;;4886692;29;20286;-93
2024/03/22 08:18:34;;;;;;;1.73;1.60;;;;;;;;;;4885908;29;20238;-93
2024/03/22 08:21:05;;;;;;;5.30;1.60;;;;;;;;;;4873892;29;20235;-91
2024/03/22 08:23:34;;;;;;;3.30;2.47;;;;;;;;;;4876773;29;20245;-93
2024/03/22 08:26:00;;;;;;;1.03;1.00;;;;;;;;;;4884767;29;20241;-92
2024/03/22 08:28:28;;;;;;;3.20;2.77;;;;;;;;;;4876403;29;20305;-91
2024/03/22 08:30:57;;;;;;;0.80;0.80;;;;;;;;;;4888261;29;20206;-91
2024/03/22 08:33:38;;;;;;;2.43;2.23;;;;;;;;;;4888142;29;20242;-95
2024/03/22 08:36:05;;;;;;;2.40;2.23;;;;;;;;;;4900642;29;20275;-92
2024/03/22 08:38:31;;;;;;;3.20;1.37;;;;;;;;;;4885189;29;20249;-92
2024/03/22 08:40:57;;;;;;;1.80;1.13;;;;;;;;;;4869707;29;20237;-92
2024/03/22 08:43:25;;;;;;;2.10;1.30;;;;;;;;;;4870368;29;20380;-92
2024/03/22 08:49:44;;;;;;;1.33;1.30;;;;;;;;;;4927405;29;20236;-90
2024/03/22 08:55:58;;;;;;;4.33;2.17;;;;;;;;;;4939758;28;20231;-91
2024/03/22 08:58:24;;;;;;;2.37;1.20;;;;;;;;;;4904850;29;20217;-90
2024/03/22 09:00:50;;;;;;;0.83;0.83;;;;;;;;;;4905117;29;20297;-91
2024/03/22 09:03:17;;;;;;;7.37;2.43;;;;;;;;;;4920211;29;20296;-91
2024/03/22 09:06:02;;;;;;;1.80;1.37;;;;;;;;;;4920121;29;20237;-90
2024/03/22 09:11:51;;;;;;;0.60;0.60;;;;;;;;;;4937402;29;20685;-91
2024/03/22 09:14:17;;;;;;;1.33;0.60;;;;;;;;;;4904900;29;20237;-91
2024/03/22 09:16:43;;;;;;;0.43;0.43;;;;;;;;;;4921067;29;20257;-91
2024/03/22 09:22:49;;;;;;;1.67;1.40;;;;;;;;;;4936425;29;20249;-92
2024/03/22 09:25:15;;;;;;;2.57;1.23;;;;;;;;;;4920609;29;20205;-93
2024/03/22 09:27:42;;;;;;;1.90;1.27;;;;;;;;;;4920190;29;20241;-93
2024/03/22 09:30:09;;;;;;;2.23;1.33;;;;;;;;;;4903792;29;20257;-93
2024/03/22 09:32:36;;;;;;;3.20;1.10;;;;;;;;;;4895742;29;20237;-93
2024/03/22 09:35:02;;;;;;;7.20;1.77;;;;;;;;;;4904168;29;20257;-94
2024/03/22 09:37:28;;;;;;;1.17;1.07;;;;;;;;;;4938041;28;20230;-92
2024/03/22 09:39:54;;;;;;;3.50;2.23;;;;;;;;;;4905706;29;20269;-92
2024/03/22 09:42:23;;;;;;;1.33;1.23;;;;;;;;;;4904526;29;20205;-93
2024/03/22 09:44:50;;;;;;;0.50;0.50;;;;;;;;;;4919991;29;20245;-94
2024/03/22 09:47:20;;;;;;;1.43;1.13;;;;;;;;;;4920610;29;20233;-92
2024/03/22 09:49:48;;;;;;;0.97;0.97;;;;;;;;;;4918941;29;20290;-92
2024/03/22 09:52:23;;;;;;;2.17;0.80;;;;;;;;;;4920755;29;20202;-92
2024/03/22 09:55:23;;;;;;;1.37;0.90;;;;;;;;;;4840534;29;20281;-91
2024/03/22 09:58:16;;;;;;;0.60;0.50;;;;;;;;;;4918669;29;20234;-90
2024/03/22 10:04:49;;;;;;;0.70;0.70;;;;;;;;;;4902528;29;20190;-92
2024/03/22 10:07:15;;;;;;;1.60;1.40;;;;;;;;;;4870104;29;20266;-92
2024/03/22 10:09:48;;;;;;;1.23;1.10;;;;;;;;;;4869873;29;20239;-92
2024/03/22 10:16:08;;;;;;;0.73;0.73;;;;;;;;;;4901344;29;20714;-92
2024/03/22 10:22:35;;;;;;;0.60;0.60;;;;;;;;;;4940675;29;20616;-92
2024/03/22 10:29:08;;;;;;;0.77;0.77;;;;;;;;;;4855414;29;20235;-92
2024/03/22 10:31:36;;;;;;;0.20;0.20;;;;;;;;;;4831497;29;20220;-91
2024/03/22 10:34:04;;;;;;;5.20;0.93;;;;;;;;;;4848718;29;20272;-95
2024/03/22 10:36:45;;;;;;;0.97;0.50;;;;;;;;;;4802410;29;20245;-95
2024/03/22 10:43:23;;;;;;;;;;;;;;;;;;;;;
2024/03/22 10:50:17;;;;;;;;;;;;;;;;;;;;;
2024/03/22 10:56:17;;;;;;;0.40;0.40;;;;;;;;;;4912808;29;20246;-93
2024/03/22 10:58:47;;;;;;;1.30;0.60;;;;;;;;;;4901344;29;20316;-93
2024/03/22 11:01:33;;;;;;;0.70;0.70;;;;;;;;;;4938647;29;20639;-92
2024/03/22 11:04:11;;;;;;;1.93;1.20;;;;;;;;;;4922115;29;20226;-93
2024/03/22 11:06:38;;;;;;;0.77;0.73;;;;;;;;;;4897516;29;20308;-88
2024/03/22 11:09:04;;;;;;;0.77;0.77;;;;;;;;;;4921382;29;20265;-89
2024/03/22 11:11:37;;;;;;;0.67;0.67;;;;;;;;;;4936608;29;20234;-89
2024/03/22 11:14:03;;;;;;;2.77;2.57;;;;;;;;;;4921462;29;20297;-89
2024/03/22 11:16:30;;;;;;;7.60;1.17;;;;;;;;;;4905412;29;20677;-88
2024/03/22 11:18:56;;;;;;;1.73;0.80;;;;;;;;;;4922562;29;20245;-88
2024/03/22 11:21:23;;;;;;;0.70;0.70;;;;;;;;;;4920975;29;20238;-88
2024/03/22 11:23:49;;;;;;;0.83;0.83;;;;;;;;;;4936837;29;20765;-89
2024/03/22 11:26:15;;;;;;;0.50;0.50;;;;;;;;;;4921423;29;20242;-89
2024/03/22 11:28:44;;;;;;;0.70;0.60;;;;;;;;;;4901108;29;20238;-90
2024/03/22 11:31:10;;;;;;;5.90;2.30;;;;;;;;;;4885853;29;20651;-91
2024/03/22 11:33:36;;;;;;;1.70;1.20;;;;;;;;;;4863692;29;20293;-88
2024/03/22 11:36:03;;;;;;;2.23;0.73;;;;;;;;;;4863639;29;20248;-90
2024/03/22 11:38:30;;;;;;;0.93;0.87;;;;;;;;;;4879452;29;20259;-88
2024/03/22 11:40:57;;;;;;;2.90;0.83;;;;;;;;;;4863807;29;20251;-89
2024/03/22 11:43:23;;;;;;;3.00;0.93;;;;;;;;;;4879024;29;20246;-91
2024/03/22 11:45:49;;;;;;;0.90;0.90;;;;;;;;;;4864458;29;20209;-89
2024/03/22 11:48:16;;;;;;;8.53;1.53;;;;;;;;;;4863547;29;20244;-89
2024/03/22 11:50:42;;;;;;;2.77;0.97;;;;;;;;;;4863590;29;20243;-88
2024/03/22 11:53:08;;;;;;;1.30;1.27;;;;;;;;;;4863556;29;20270;-89
2024/03/22 11:55:36;;;;;;;8.57;1.80;;;;;;;;;;4860237;29;20242;-87
2024/03/22 11:58:02;;;;;;;1.77;1.27;;;;;;;;;;4860722;29;20216;-88
2024/03/22 12:00:28;;;;;;;5.57;1.10;;;;;;;;;;4875332;29;20239;-88
2024/03/22 12:02:54;;;;;;;0.50;0.50;;;;;;;;;;4897133;29;20235;-87
2024/03/22 12:05:21;;;;;;;0.87;0.87;;;;;;;;;;4881678;29;20242;-88
2024/03/22 12:07:47;;;;;;;2.00;1.90;;;;;;;;;;4881468;29;20345;-90
2024/03/22 12:10:13;;;;;;;2.53;2.20;;;;;;;;;;4882057;29;20306;-87
2024/03/22 12:12:39;;;;;;;1.40;1.30;;;;;;;;;;4880989;29;20247;-89
2024/03/22 12:15:06;;;;;;;4.83;0.97;;;;;;;;;;4880968;29;20254;-89
2024/03/22 12:17:33;;;;;;;0.77;0.73;;;;;;;;;;4881203;29;20306;-87
2024/03/22 12:19:59;;;;;;;1.27;1.17;;;;;;;;;;4881355;29;20235;-86
2024/03/22 12:22:25;;;;;;;4.37;2.30;;;;;;;;;;4880932;29;20214;-87
2024/03/22 12:24:51;;;;;;;3.03;1.53;;;;;;;;;;4881997;29;20215;-87
2024/03/22 12:27:18;;;;;;;1.30;1.20;;;;;;;;;;4911472;29;20708;-89
2024/03/22 12:29:44;;;;;;;0.47;0.47;;;;;;;;;;4903934;29;20238;-88
2024/03/22 12:32:10;;;;;;;0.83;0.80;;;;;;;;;;4919524;29;20254;-87
2024/03/22 12:34:36;;;;;;;2.70;1.83;;;;;;;;;;4903781;29;20210;-87
2024/03/22 12:37:03;;;;;;;4.93;1.77;;;;;;;;;;4919604;29;20225;-87
2024/03/22 12:39:29;;;;;;;0.80;0.60;;;;;;;;;;4903600;29;20242;-86
2024/03/22 12:41:55;;;;;;;0.73;0.57;;;;;;;;;;4903677;29;20288;-87
2024/03/22 12:44:22;;;;;;;1.10;0.87;;;;;;;;;;4903802;29;20288;-87
2024/03/22 12:46:51;;;;;;;0.70;0.70;;;;;;;;;;4903736;29;20317;-89
2024/03/22 12:49:17;;;;;;;0.27;0.27;;;;;;;;;;4920658;29;20355;-88
2024/03/22 12:51:44;;;;;;;2.33;2.13;;;;;;;;;;4919055;29;20233;-88
2024/03/22 12:54:10;;;;;;;4.17;2.93;;;;;;;;;;4903085;29;20720;-86
2024/03/22 12:56:39;;;;;;;5.13;0.87;;;;;;;;;;4918997;29;20248;-87
2024/03/22 12:59:05;;;;;;;1.87;0.90;;;;;;;;;;4902328;29;20605;-87
2024/03/22 13:01:31;;;;;;;1.67;1.00;;;;;;;;;;4917827;29;20296;-87
2024/03/22 13:03:58;;;;;;;0.70;0.70;;;;;;;;;;4902775;29;20269;-87
2024/03/22 13:06:24;;;;;;;0.47;0.47;;;;;;;;;;4889907;29;20238;-87
2024/03/22 13:08:50;;;;;;;4.13;0.60;;;;;;;;;;4918083;29;20237;-88
2024/03/22 13:11:17;;;;;;;3.10;2.33;;;;;;;;;;4917931;29;20306;-88
2024/03/22 13:13:43;;;;;;;1.27;1.27;;;;;;;;;;4902312;29;20317;-87
2024/03/22 13:16:14;;;;;;;6.73;0.77;;;;;;;;;;4902434;29;20302;-88
2024/03/22 13:18:43;;;;;;;1.50;1.00;;;;;;;;;;4902146;29;20281;-90
2024/03/22 13:21:11;;;;;;;5.97;1.83;;;;;;;;;;4901865;29;20248;-87
2024/03/22 13:23:37;;;;;;;0.40;0.40;;;;;;;;;;4901797;29;20288;-87
2024/03/22 13:26:05;;;;;;;7.00;2.63;;;;;;;;;;4917774;29;20660;-87
2024/03/22 13:28:31;;;;;;;3.77;0.73;;;;;;;;;;4901890;29;20210;-86
2024/03/22 13:31:05;;;;;;;2.27;0.93;;;;;;;;;;4932730;29;20206;-87
2024/03/22 13:33:32;;;;;;;0.47;0.47;;;;;;;;;;4918723;29;20233;-88
2024/03/22 13:35:58;;;;;;;0.53;0.50;;;;;;;;;;4917831;29;20693;-88
2024/03/22 13:38:24;;;;;;;10.53;2.43;;;;;;;;;;4919019;29;20281;-88
2024/03/22 13:40:57;;;;;;;2.10;1.43;;;;;;;;;;4934136;29;20285;-88
2024/03/22 13:43:24;;;;;;;2.77;1.70;;;;;;;;;;4903157;29;20257;-86
2024/03/22 13:45:56;;;;;;;6.77;0.77;;;;;;;;;;4919206;29;20215;-87
2024/03/22 13:48:24;;;;;;;0.37;0.37;;;;;;;;;;4902990;29;20238;-88
2024/03/22 13:50:53;;;;;;;0.60;0.60;;;;;;;;;;4918462;29;20240;-87
2024/03/22 13:53:21;;;;;;;1.43;0.50;;;;;;;;;;4918562;29;20249;-89
2024/03/22 13:55:48;;;;;;;4.90;1.47;;;;;;;;;;4918206;29;20293;-87
2024/03/22 13:58:14;;;;;;;0.40;0.20;;;;;;;;;;4919050;29;20293;-88
2024/03/22 14:00:40;;;;;;;4.40;0.53;;;;;;;;;;4902468;29;20246;-87
2024/03/22 14:03:07;;;;;;;8.60;1.43;;;;;;;;;;4918440;29;20245;-87
2024/03/22 14:05:33;;;;;;;3.93;0.67;;;;;;;;;;4902587;29;20372;-90
2024/03/22 14:08:03;;;;;;;0.50;0.50;;;;;;;;;;4918408;29;20230;-87
2024/03/22 14:10:31;;;;;;;1.30;1.20;;;;;;;;;;4918265;29;20214;-87
2024/03/22 14:12:58;;;;;;;1.60;0.47;;;;;;;;;;4903340;29;20221;-88
2024/03/22 14:15:26;;;;;;;0.93;0.93;;;;;;;;;;4918057;29;20236;-88
2024/03/22 14:17:52;;;;;;;1.30;1.00;;;;;;;;;;4902804;29;20244;-88
2024/03/22 14:20:18;;;;;;;2.43;0.83;;;;;;;;;;4918752;29;20320;-88
2024/03/22 14:22:45;;;;;;;1.03;1.03;;;;;;;;;;4902475;29;20250;-89
2024/03/22 14:25:11;;;;;;;2.00;0.87;;;;;;;;;;4919327;29;20300;-88
2024/03/22 14:27:38;;;;;;;1.73;0.50;;;;;;;;;;4902418;29;20240;-89
2024/03/22 14:30:07;;;;;;;7.63;1.40;;;;;;;;;;4917391;29;20252;-90
2024/03/22 14:32:34;;;;;;;1.30;0.80;;;;;;;;;;4918109;29;20207;-88
2024/03/22 14:35:00;;;;;;;0.43;0.43;;;;;;;;;;4919533;29;20268;-88
2024/03/22 14:37:27;;;;;;;0.90;0.57;;;;;;;;;;4918598;29;20705;-89
2024/03/22 14:39:53;;;;;;;8.03;0.90;;;;;;;;;;4908833;29;20727;-87
2024/03/22 14:42:19;;;;;;;3.17;2.30;;;;;;;;;;4902462;29;20241;-88
2024/03/22 14:44:45;;;;;;;14.73;1.60;;;;;;;;;;4918590;29;20218;-88
2024/03/22 14:47:12;;;;;;;0.67;0.67;;;;;;;;;;4903780;29;20656;-87
2024/03/22 14:49:39;;;;;;;1.83;1.07;;;;;;;;;;4921802;29;20238;-88
2024/03/22 14:52:05;;;;;;;1.70;0.73;;;;;;;;;;4921710;29;20245;-89
2024/03/22 14:54:34;;;;;;;6.73;0.60;;;;;;;;;;4921210;29;20242;-86
2024/03/22 14:57:00;;;;;;;1.63;1.53;;;;;;;;;;4936806;29;20245;-87
2024/03/22 14:59:29;;;;;;;5.63;0.80;;;;;;;;;;4921954;29;20419;-87
2024/03/22 15:01:56;;;;;;;3.57;1.17;;;;;;;;;;4936786;29;20230;-89
2024/03/22 15:04:25;;;;;;;12.47;4.00;;;;;;;;;;4921082;29;20324;-87
2024/03/22 15:06:51;;;;;;;1.00;1.00;;;;;;;;;;4905520;29;20240;-88
2024/03/22 15:09:20;;;;;;;7.53;1.40;;;;;;;;;;4905942;29;20765;-88
2024/03/22 15:11:47;;;;;;;1.40;0.63;;;;;;;;;;4921570;29;20245;-91
2024/03/22 15:14:13;;;;;;;5.37;1.00;;;;;;;;;;4922051;29;20281;-89
2024/03/22 15:16:43;;;;;;;8.20;1.83;;;;;;;;;;4920522;29;20248;-87
2024/03/22 15:19:11;;;;;;;1.30;1.27;;;;;;;;;;4936738;29;20309;-91
2024/03/22 15:21:37;;;;;;;0.83;0.40;;;;;;;;;;4921138;29;20296;-88
2024/03/22 15:24:03;;;;;;;4.63;1.87;;;;;;;;;;4937080;29;20241;-88
2024/03/22 15:26:29;;;;;;;0.40;0.40;;;;;;;;;;4921018;29;20745;-88
2024/03/22 15:28:56;;;;;;;2.33;0.67;;;;;;;;;;4921883;29;20218;-88